Погода Марабана 2 недели

Пара, Бразилия

19 июля-01 августа
  • 19июля
    Сегодня
    +22°
    +36°
    Ясно и безоблачно
    ВремяПогодаТемператураВлажностьДавлениеВетер, м/сВероятность осадков
    00:00Ясно и безоблачно+24°C69 %756 мм2.1 м/с5 %
    03:00Ясно и безоблачно+23°C85 %756 мм2.2 м/с5 %
    06:00Ясно и безоблачно+22°C84 %757 мм1.8 м/с5 %
    09:00Ясно и безоблачно+28°C62 %758 мм0.3 м/с5 %
    12:00Ясно и безоблачно+34°C44 %757 мм2.3 м/с5 %
    15:00Ясно и безоблачно+35°C35 %755 мм3.2 м/с5 %
    18:00Ясно и безоблачно+33°C41 %755 мм2.3 м/с5 %
    21:00Ясно и безоблачно+27°C57 %756 мм0.0 м/с5 %
  • 20июля
    Суббота
    +23°
    +36°
    Ясно и безоблачно
    ВремяПогодаТемператураВлажностьДавлениеВетер, м/сВероятность осадков
    00:00Ясно и безоблачно+25°C61 %756 мм2.2 м/с5 %
    03:00Практически безоблачно+25°C73 %755 мм2.3 м/с5 %
    06:00Небольшая облачность+23°C79 %756 мм1.1 м/с5 %
    09:00Ясно и безоблачно+28°C59 %757 мм0.3 м/с2 %
    12:00Практически безоблачно+34°C39 %756 мм3.1 м/с3 %
    15:00Ясно и безоблачно+36°C33 %754 мм2.6 м/с3 %
    18:00Облачно с прояснениями+33°C40 %754 мм2.5 м/с4 %
    21:00Облачно с прояснениями+27°C45 %755 мм0.0 м/с5 %
  • 21июля
    Воскресенье
    +20°
    +36°
    Облачно с прояснениями
    ВремяПогодаТемператураВлажностьДавлениеВетер, м/сВероятность осадков
    00:00Ясно и безоблачно+25°C57 %755 мм2.0 м/с5 %
    03:00Облачно с прояснениями+25°C71 %754 мм2.1 м/с4 %
    06:00Облачно с прояснениями+24°C68 %755 мм1.7 м/с4 %
    09:00Практически безоблачно+28°C51 %756 мм1.2 м/с3 %
    12:00Ясно и безоблачно+34°C33 %755 мм4.2 м/с4 %
    15:00Облачно с прояснениями+36°C29 %753 мм3.0 м/с5 %
    18:00Ясно и безоблачно+33°C42 %753 мм1.9 м/с5 %
    21:00Ясно и безоблачно+25°C50 %755 мм0.3 м/с5 %
  • 22июля
    Понедельник
    +20°
    +35°
    Ясно и безоблачно
    ВремяПогодаТемператураВлажностьДавлениеВетер, м/сВероятность осадков
    00:00Ясно и безоблачно+24°C51 %755 мм2.4 м/с5 %
    03:00Ясно и безоблачно+23°C57 %755 мм2.2 м/с5 %
    06:00Ясно и безоблачно+21°C68 %755 мм2.6 м/с5 %
    09:00Ясно и безоблачно+27°C45 %757 мм1.1 м/с3 %
    12:00Ясно и безоблачно+34°C29 %756 мм5.0 м/с4 %
    15:00Ясно и безоблачно+35°C26 %754 мм3.5 м/с4 %
    18:00Ясно и безоблачно+32°C43 %754 мм2.1 м/с5 %
    21:00Ясно и безоблачно+26°C52 %756 мм0.0 м/с5 %
  • 23июля
    Вторник
    +21°
    +36°
    Ясно и безоблачно
    ВремяПогодаТемператураВлажностьДавлениеВетер, м/сВероятность осадков
    00:00Ясно и безоблачно+23°C56 %756 мм2.3 м/с5 %
    03:00Ясно и безоблачно+22°C65 %756 мм2.5 м/с4 %
    06:00Ясно и безоблачно+21°C71 %756 мм2.2 м/с6 %
    09:00Ясно и безоблачно+28°C55 %757 мм0.5 м/с4 %
    12:00Ясно и безоблачно+34°C35 %757 мм5.1 м/с5 %
    15:00Ясно и безоблачно+35°C30 %755 мм4.1 м/с5 %
    18:00Ясно и безоблачно+33°C43 %755 мм1.9 м/с5 %
    21:00Ясно и безоблачно+26°C55 %756 мм0.0 м/с5 %
Мы используем cookies
Соглашаюсь